createdAt,value
2019-02-05T00:00:20.988Z,80.13
2019-02-05T00:01:20.972Z,80.24
2019-02-05T00:02:20.966Z,80.34
2019-02-05T00:03:20.978Z,80.13
2019-02-05T00:04:20.954Z,80.24
2019-02-05T00:05:20.932Z,80.44
2019-02-05T00:06:20.920Z,80.24
2019-02-05T00:07:20.909Z,80.34
2019-02-05T00:08:20.900Z,81.32
2019-02-05T00:09:20.888Z,81.07
2019-02-05T00:10:20.878Z,81.18
2019-02-05T00:11:20.867Z,81.18
2019-02-05T00:12:20.860Z,81.32
2019-02-05T00:13:20.855Z,81.11
2019-02-05T00:14:20.834Z,81.11
2019-02-05T00:15:20.830Z,81.11
2019-02-05T00:16:20.831Z,81.00
2019-02-05T00:17:20.804Z,81.21
2019-02-05T00:18:20.792Z,81.32
2019-02-05T00:19:20.782Z,81.32
2019-02-05T00:20:20.775Z,81.21
2019-02-05T00:21:20.769Z,81.42
2019-02-05T00:22:20.756Z,81.11
2019-02-05T00:23:20.736Z,81.52
2019-02-05T00:24:20.733Z,81.42
2019-02-05T00:25:20.724Z,81.00
2019-02-05T00:26:20.716Z,81.00
2019-02-05T00:27:20.724Z,81.11
2019-02-05T00:28:20.684Z,81.32
2019-02-05T00:29:20.668Z,81.32
2019-02-05T00:30:20.671Z,80.90
2019-02-05T00:31:20.654Z,81.21
2019-02-05T00:32:20.648Z,81.21
2019-02-05T00:33:20.634Z,81.21
2019-02-05T00:34:20.624Z,81.42
2019-02-05T00:35:20.611Z,81.21
2019-02-05T00:36:20.599Z,81.21
2019-02-05T00:37:20.598Z,81.00
2019-02-05T00:38:20.590Z,81.21
2019-02-05T00:39:20.566Z,80.90
2019-02-05T00:40:20.559Z,81.21
2019-02-05T00:41:20.544Z,80.90
2019-02-05T00:42:20.538Z,81.00
2019-02-05T00:43:20.524Z,81.21
2019-02-05T00:44:20.510Z,81.00
2019-02-05T00:45:20.501Z,81.11
2019-02-05T00:46:20.488Z,81.00
2019-02-05T00:47:20.483Z,81.32
2019-02-05T00:48:20.474Z,81.46
2019-02-05T00:49:20.462Z,81.00
2019-02-05T00:50:20.454Z,81.11
2019-02-05T00:51:20.449Z,81.15
2019-02-05T00:52:20.432Z,81.32
2019-02-05T00:53:20.415Z,81.04
2019-02-05T00:54:20.414Z,81.11
2019-02-05T00:55:20.408Z,81.25
2019-02-05T00:56:20.386Z,81.21
2019-02-05T00:57:20.369Z,81.35
2019-02-05T00:58:20.364Z,81.04
2019-02-05T00:59:20.353Z,81.32
2019-02-05T01:00:20.351Z,81.04
2019-02-05T01:01:20.330Z,81.04
2019-02-05T01:02:20.323Z,81.35
2019-02-05T01:03:20.310Z,81.04
2019-02-05T01:04:20.300Z,81.15
2019-02-05T01:05:20.292Z,81.21
2019-02-05T01:06:20.284Z,81.15
2019-02-05T01:07:20.273Z,81.15
2019-02-05T01:08:20.266Z,81.25
2019-02-05T01:09:20.251Z,80.73
2019-02-05T01:10:20.247Z,80.41
2019-02-05T01:11:20.228Z,80.62
2019-02-05T01:12:20.221Z,80.38
2019-02-05T01:13:20.202Z,80.52
2019-02-05T01:14:20.195Z,80.38
2019-02-05T01:15:20.186Z,80.16
2019-02-05T01:16:20.177Z,80.16
2019-02-05T01:17:20.166Z,80.06
2019-02-05T01:18:20.158Z,79.85
2019-02-05T01:19:20.144Z,79.85
2019-02-05T01:20:20.126Z,79.96
2019-02-05T01:21:20.116Z,79.85
2019-02-05T01:22:20.110Z,79.96
2019-02-05T01:23:20.099Z,80.27
2019-02-05T01:24:20.088Z,80.06
2019-02-05T01:25:20.077Z,79.85
2019-02-05T01:26:28.901Z,79.64
2019-02-05T01:27:21.058Z,79.64
2019-02-05T01:28:20.048Z,79.75
2019-02-05T01:29:20.170Z,79.44
2019-02-05T01:30:20.022Z,79.75
2019-02-05T01:31:20.013Z,79.44
2019-02-05T01:32:20.006Z,79.33
2019-02-05T01:33:19.994Z,79.33
2019-02-05T01:34:19.984Z,79.12
2019-02-05T01:35:19.983Z,79.64
2019-02-05T01:36:19.964Z,79.22
2019-02-05T01:37:19.952Z,79.22
2019-02-05T01:38:19.936Z,79.12
2019-02-05T01:39:19.930Z,79.12
2019-02-05T01:40:19.927Z,79.12
2019-02-05T01:41:19.902Z,79.22
2019-02-05T01:42:19.898Z,79.12
2019-02-05T01:43:19.888Z,79.22
2019-02-05T01:44:19.880Z,79.22
2019-02-05T01:45:19.862Z,79.22
2019-02-05T01:46:19.860Z,79.33
2019-02-05T01:47:19.844Z,79.22
2019-02-05T01:48:19.829Z,79.22
2019-02-05T01:49:19.822Z,79.44
2019-02-05T01:50:19.822Z,79.02
2019-02-05T01:51:19.804Z,79.33
2019-02-05T01:52:19.794Z,79.33
2019-02-05T01:53:19.772Z,78.60
2019-02-05T01:54:19.770Z,78.91
2019-02-05T01:55:19.768Z,78.81
2019-02-05T01:56:19.752Z,78.70
2019-02-05T01:57:19.748Z,79.08
2019-02-05T01:58:19.738Z,78.70
2019-02-05T01:59:19.723Z,78.70
2019-02-05T02:00:19.706Z,78.60
2019-02-05T02:01:19.706Z,78.91
2019-02-05T02:02:19.684Z,78.81
2019-02-05T02:03:19.674Z,78.88
2019-02-05T02:04:19.660Z,78.81
2019-02-05T02:05:19.650Z,79.12
2019-02-05T02:06:19.646Z,78.70
2019-02-05T02:07:19.642Z,78.81
2019-02-05T02:08:19.621Z,78.81
2019-02-05T02:09:19.618Z,78.81
2019-02-05T02:10:19.600Z,78.70
2019-02-05T02:11:19.582Z,79.12
2019-02-05T02:12:19.578Z,78.81
2019-02-05T02:13:19.570Z,78.91
2019-02-05T02:14:19.564Z,78.91
2019-02-05T02:15:19.560Z,78.91
2019-02-05T02:16:19.545Z,78.70
2019-02-05T02:17:19.522Z,78.91
2019-02-05T02:18:19.510Z,79.12
2019-02-05T02:19:19.503Z,79.02
2019-02-05T02:20:19.498Z,78.70
2019-02-05T02:21:19.506Z,78.60
2019-02-05T02:22:19.473Z,78.81
2019-02-05T02:23:19.458Z,78.70
2019-02-05T02:24:19.449Z,79.02
2019-02-05T02:25:19.446Z,78.91
2019-02-05T02:26:19.427Z,79.02
2019-02-05T02:27:19.421Z,79.02
2019-02-05T02:28:19.403Z,78.56
2019-02-05T02:29:19.395Z,78.04
2019-02-05T02:30:19.399Z,78.04
2019-02-05T02:31:19.378Z,78.14
2019-02-05T02:32:19.382Z,78.60
2019-02-05T02:33:19.364Z,78.14
2019-02-05T02:34:19.345Z,78.49
2019-02-05T02:35:19.333Z,77.94
2019-02-05T02:36:19.322Z,78.04
2019-02-05T02:37:19.318Z,77.55
2019-02-05T02:38:19.301Z,77.76
2019-02-05T02:39:19.294Z,77.76
2019-02-05T02:40:19.282Z,77.97
2019-02-05T02:41:19.272Z,77.94
2019-02-05T02:42:19.262Z,77.94
2019-02-05T02:43:19.261Z,77.83
2019-02-05T02:44:19.240Z,77.76
2019-02-05T02:45:19.226Z,77.73
2019-02-05T02:46:19.218Z,77.76
2019-02-05T02:47:19.214Z,77.66
2019-02-05T02:48:19.200Z,77.94
2019-02-05T02:49:19.189Z,77.76
2019-02-05T02:50:19.181Z,77.55
2019-02-05T02:51:19.162Z,77.66
2019-02-05T02:52:19.162Z,77.31
2019-02-05T02:53:19.146Z,77.87
2019-02-05T02:54:19.138Z,77.76
2019-02-05T02:55:19.136Z,78.25
2019-02-05T02:56:19.113Z,77.94
2019-02-05T02:57:19.102Z,78.18
2019-02-05T02:58:19.088Z,77.55
2019-02-05T02:59:19.084Z,77.87
2019-02-05T03:00:19.208Z,77.97
2019-02-05T03:01:19.074Z,78.14
2019-02-05T03:02:19.049Z,78.28
2019-02-05T03:03:19.042Z,78.14
2019-02-05T03:04:19.030Z,78.39
2019-02-05T03:05:19.020Z,78.14
2019-02-05T03:06:19.008Z,77.97
2019-02-05T03:07:19.000Z,78.04
2019-02-05T03:08:18.991Z,78.46
2019-02-05T03:09:18.974Z,78.25
2019-02-05T03:10:18.976Z,78.56
2019-02-05T03:11:18.957Z,78.56
2019-02-05T03:12:18.946Z,78.35
2019-02-05T03:13:18.933Z,78.04
2019-02-05T03:14:18.926Z,77.94
2019-02-05T03:15:18.907Z,77.83
2019-02-05T03:16:18.909Z,77.31
2019-02-05T03:17:18.898Z,77.62
2019-02-05T03:18:18.884Z,77.73
2019-02-05T03:19:18.874Z,77.73
2019-02-05T03:20:18.863Z,77.41
2019-02-05T03:21:18.853Z,77.31
2019-02-05T03:22:18.838Z,77.51
2019-02-05T03:23:18.835Z,77.83
2019-02-05T03:24:18.828Z,77.41
2019-02-05T03:25:18.828Z,77.62
2019-02-05T03:26:18.795Z,77.00
2019-02-05T03:27:18.789Z,78.21
2019-02-05T03:28:18.774Z,76.68
2019-02-05T03:29:18.766Z,78.35
2019-02-05T03:30:18.753Z,76.65
2019-02-05T03:31:18.740Z,77.51
2019-02-05T03:32:18.732Z,77.51
2019-02-05T03:33:18.733Z,77.38
2019-02-05T03:34:18.718Z,78.11
2019-02-05T03:35:18.710Z,77.48
2019-02-05T03:36:18.690Z,78.00
2019-02-05T03:37:18.684Z,77.69
2019-02-05T03:38:18.667Z,77.17
2019-02-05T03:39:18.658Z,77.59
2019-02-05T03:40:18.651Z,77.69
2019-02-05T03:41:18.634Z,77.48
2019-02-05T03:42:18.620Z,77.48
2019-02-05T03:43:18.686Z,77.69
2019-02-05T03:44:18.614Z,77.59
2019-02-05T03:45:18.591Z,77.27
2019-02-05T03:46:18.604Z,77.59
2019-02-05T03:47:18.596Z,77.17
2019-02-05T03:48:18.557Z,77.59
2019-02-05T03:49:18.545Z,77.17
2019-02-05T03:50:18.543Z,76.96
2019-02-05T03:51:18.527Z,77.17
2019-02-05T03:52:18.521Z,77.27
2019-02-05T03:53:18.505Z,77.27
2019-02-05T03:54:18.496Z,77.48
2019-02-05T03:55:18.488Z,76.65
2019-02-05T03:56:18.480Z,77.06
2019-02-05T03:57:30.466Z,76.96
2019-02-05T03:58:19.452Z,76.75
2019-02-05T03:59:18.440Z,77.06
2019-02-05T04:00:18.424Z,76.96
2019-02-05T04:01:18.424Z,76.54
2019-02-05T04:02:18.420Z,76.54
2019-02-05T04:03:18.397Z,77.06
2019-02-05T04:04:18.394Z,76.86
2019-02-05T04:05:18.374Z,76.54
2019-02-05T04:06:18.368Z,76.82
2019-02-05T04:07:18.360Z,76.54
2019-02-05T04:08:18.346Z,76.92
2019-02-05T04:09:18.340Z,76.86
2019-02-05T04:10:18.321Z,77.06
2019-02-05T04:11:18.313Z,77.27
2019-02-05T04:12:18.296Z,77.27
2019-02-05T04:13:18.293Z,77.14
2019-02-05T04:14:18.292Z,77.27
2019-02-05T04:15:18.276Z,77.38
2019-02-05T04:16:18.261Z,77.34
2019-02-05T04:17:18.244Z,77.38
2019-02-05T04:18:18.230Z,77.45
2019-02-05T04:19:18.226Z,77.59
2019-02-05T04:20:18.216Z,77.06
2019-02-05T04:21:18.203Z,77.17
2019-02-05T04:22:18.189Z,77.38
2019-02-05T04:23:18.179Z,77.59
2019-02-05T04:24:18.189Z,77.48
2019-02-05T04:25:18.166Z,77.69
2019-02-05T04:26:18.157Z,77.69
2019-02-05T04:27:18.137Z,78.00
2019-02-05T04:28:18.130Z,77.06
2019-02-05T04:29:18.116Z,77.90
2019-02-05T04:30:18.105Z,76.75
2019-02-05T04:31:18.092Z,76.75
2019-02-05T04:32:18.080Z,77.80
2019-02-05T04:33:18.069Z,78.11
2019-02-05T04:34:18.066Z,77.80
2019-02-05T04:35:18.057Z,78.53
2019-02-05T04:36:18.044Z,78.84
2019-02-05T04:37:18.037Z,79.36
2019-02-05T04:38:18.024Z,79.88
2019-02-05T04:39:18.011Z,80.24
2019-02-05T04:40:18.001Z,81.28
2019-02-05T04:41:18.002Z,81.59
2019-02-05T04:42:17.977Z,81.80
2019-02-05T04:43:17.970Z,82.64
2019-02-05T04:44:17.964Z,82.95
2019-02-05T04:45:17.942Z,83.58
2019-02-05T04:46:17.942Z,83.58
2019-02-05T04:47:17.934Z,83.68
2019-02-05T04:48:17.922Z,83.83
2019-02-05T04:49:17.925Z,83.89
2019-02-05T04:50:17.893Z,84.24
2019-02-05T04:51:17.875Z,84.77
2019-02-05T04:52:17.869Z,84.87
2019-02-05T04:53:17.866Z,84.77
2019-02-05T04:54:17.849Z,85.08
2019-02-05T04:55:17.834Z,85.18
2019-02-05T04:56:17.893Z,85.29
2019-02-05T04:57:17.813Z,85.29
2019-02-05T04:58:17.814Z,85.18
2019-02-05T04:59:17.797Z,85.08
2019-02-05T05:00:17.788Z,85.50
2019-02-05T05:01:17.781Z,85.29
2019-02-05T05:02:17.758Z,85.50
2019-02-05T05:03:17.765Z,85.39
2019-02-05T05:04:17.845Z,85.29
2019-02-05T05:05:17.736Z,85.04
2019-02-05T05:06:17.732Z,84.83
2019-02-05T05:07:17.714Z,85.29
2019-02-05T05:08:17.727Z,84.45
2019-02-05T05:09:17.688Z,84.52
2019-02-05T05:10:17.678Z,84.62
2019-02-05T05:11:17.665Z,84.83
2019-02-05T05:12:17.661Z,84.73
2019-02-05T05:13:17.649Z,84.31
2019-02-05T05:14:17.629Z,84.52
2019-02-05T05:15:17.623Z,83.89
2019-02-05T05:16:17.612Z,83.78
2019-02-05T05:17:17.611Z,83.95
2019-02-05T05:18:17.595Z,84.20
2019-02-05T05:19:17.576Z,83.75
2019-02-05T05:20:17.576Z,83.64
2019-02-05T05:21:17.688Z,83.47
2019-02-05T05:22:17.552Z,83.68
2019-02-05T05:23:17.554Z,83.47
2019-02-05T05:24:17.533Z,83.64
2019-02-05T05:25:17.516Z,83.26
2019-02-05T05:26:17.505Z,83.75
2019-02-05T05:27:17.496Z,83.33
2019-02-05T05:28:17.495Z,82.95
2019-02-05T05:29:17.480Z,82.81
2019-02-05T05:30:17.463Z,82.91
2019-02-05T05:31:17.455Z,83.06
2019-02-05T05:32:17.445Z,82.39
2019-02-05T05:33:17.427Z,82.50
2019-02-05T05:34:17.426Z,82.50
2019-02-05T05:35:17.407Z,83.01
2019-02-05T05:36:17.396Z,81.97
2019-02-05T05:37:17.394Z,82.18
2019-02-05T05:38:17.372Z,82.18
2019-02-05T05:39:17.377Z,82.18
2019-02-05T05:40:17.365Z,82.07
2019-02-05T05:41:17.341Z,81.76
2019-02-05T05:42:17.332Z,81.97
2019-02-05T05:43:17.318Z,82.18
2019-02-05T05:44:17.320Z,81.35
2019-02-05T05:45:17.316Z,81.35
2019-02-05T05:46:17.298Z,81.56
2019-02-05T05:47:17.347Z,81.24
2019-02-05T05:48:17.271Z,81.13
2019-02-05T05:49:17.266Z,80.93
2019-02-05T05:50:17.257Z,81.03
2019-02-05T05:51:17.243Z,81.13
2019-02-05T05:52:17.219Z,81.13
2019-02-05T05:53:17.256Z,81.45
2019-02-05T05:54:17.205Z,80.62
2019-02-05T05:55:17.190Z,80.20
2019-02-05T05:56:17.187Z,81.35
2019-02-05T05:57:18.821Z,81.35
2019-02-05T05:58:23.091Z,80.62
2019-02-05T05:59:18.152Z,81.35
2019-02-05T06:00:17.141Z,80.30
2019-02-05T06:01:17.128Z,80.72
2019-02-05T06:02:17.126Z,80.51
2019-02-05T06:03:17.106Z,79.57
2019-02-05T06:04:17.102Z,79.68
2019-02-05T06:05:17.083Z,79.99
2019-02-05T06:06:17.076Z,80.20
2019-02-05T06:07:17.069Z,79.95
2019-02-05T06:08:17.076Z,80.82
2019-02-05T06:09:17.045Z,80.62
2019-02-05T06:10:17.030Z,79.88
2019-02-05T06:11:17.019Z,79.74
2019-02-05T06:12:17.012Z,79.88
2019-02-05T06:13:17.004Z,79.85
2019-02-05T06:14:16.995Z,79.99
2019-02-05T06:15:16.977Z,80.16
2019-02-05T06:16:16.968Z,81.35
2019-02-05T06:17:16.958Z,79.88
2019-02-05T06:18:16.940Z,79.74
2019-02-05T06:19:16.934Z,79.99
2019-02-05T06:20:16.922Z,79.88
2019-02-05T06:21:16.919Z,79.95
2019-02-05T06:22:16.901Z,80.09
2019-02-05T06:23:16.900Z,79.36
2019-02-05T06:24:16.883Z,79.57
2019-02-05T06:25:16.899Z,79.88
2019-02-05T06:26:20.054Z,79.53
2019-02-05T06:27:16.854Z,79.26
2019-02-05T06:28:16.837Z,79.47
2019-02-05T06:29:16.831Z,79.33
2019-02-05T06:30:16.820Z,79.22
2019-02-05T06:31:16.814Z,79.33
2019-02-05T06:32:16.793Z,79.26
2019-02-05T06:33:16.789Z,79.22
2019-02-05T06:34:16.773Z,79.22
2019-02-05T06:35:16.769Z,79.11
2019-02-05T06:36:16.757Z,78.91
2019-02-05T06:37:16.746Z,79.01
2019-02-05T06:38:16.725Z,78.91
2019-02-05T06:39:16.716Z,79.95
2019-02-05T06:40:16.716Z,80.16
2019-02-05T06:41:16.694Z,80.65
2019-02-05T06:42:16.688Z,79.60
2019-02-05T06:43:16.676Z,80.02
2019-02-05T06:44:16.667Z,79.46
2019-02-05T06:45:16.655Z,78.56
2019-02-05T06:46:16.644Z,78.66
2019-02-05T06:47:16.641Z,79.57
2019-02-05T06:48:16.646Z,79.15
2019-02-05T06:49:16.620Z,79.22
2019-02-05T06:50:16.602Z,78.69
2019-02-05T06:51:16.591Z,77.80
2019-02-05T06:52:16.580Z,77.06
2019-02-05T06:53:16.586Z,77.17
2019-02-05T06:54:16.557Z,78.25
2019-02-05T06:55:16.547Z,78.66
2019-02-05T06:56:16.538Z,79.11
2019-02-05T06:57:16.532Z,79.33
2019-02-05T06:58:16.512Z,79.33
2019-02-05T06:59:16.502Z,79.19
2019-02-05T07:00:16.495Z,79.53
2019-02-05T07:01:16.485Z,79.33
2019-02-05T07:02:16.482Z,79.53
2019-02-05T07:03:16.461Z,79.01
2019-02-05T07:04:16.453Z,79.22
2019-02-05T07:05:16.446Z,79.11
2019-02-05T07:06:16.428Z,78.91
2019-02-05T07:07:16.420Z,78.87
2019-02-05T07:08:16.407Z,78.49
2019-02-05T07:09:16.396Z,78.77
2019-02-05T07:10:16.382Z,78.70
2019-02-05T07:11:16.380Z,78.45
2019-02-05T07:12:16.363Z,78.45
2019-02-05T07:13:16.355Z,78.77
2019-02-05T07:14:16.342Z,78.87
2019-02-05T07:15:16.334Z,78.87
2019-02-05T07:16:16.332Z,78.35
2019-02-05T07:17:16.314Z,77.83
2019-02-05T07:18:16.298Z,78.35
2019-02-05T07:19:16.294Z,78.56
2019-02-05T07:20:16.284Z,78.45
2019-02-05T07:21:16.271Z,78.52
2019-02-05T07:22:16.263Z,78.73
2019-02-05T07:23:16.265Z,78.35
2019-02-05T07:24:16.244Z,78.83
2019-02-05T07:25:16.232Z,78.83
2019-02-05T07:26:16.214Z,78.63
2019-02-05T07:27:16.202Z,78.52
2019-02-05T07:28:16.189Z,78.63
2019-02-05T07:29:16.188Z,77.80
2019-02-05T07:30:16.176Z,78.31
2019-02-05T07:31:16.166Z,78.21
2019-02-05T07:32:16.147Z,78.00
2019-02-05T07:33:16.142Z,78.11
2019-02-05T07:34:16.132Z,78.73
2019-02-05T07:35:16.115Z,78.42
2019-02-05T07:36:16.108Z,78.42
2019-02-05T07:37:16.103Z,79.05
2019-02-05T07:38:16.090Z,78.73
2019-02-05T07:39:16.082Z,78.31
2019-02-05T07:40:16.065Z,78.31
2019-02-05T07:41:16.056Z,77.90
2019-02-05T07:42:16.042Z,78.11
2019-02-05T07:43:16.034Z,77.23
2019-02-05T07:44:16.030Z,77.66
2019-02-05T07:45:16.014Z,77.97
2019-02-05T07:46:16.009Z,77.76
2019-02-05T07:47:15.989Z,78.07
2019-02-05T07:48:15.981Z,78.28
2019-02-05T07:49:15.970Z,77.80
2019-02-05T07:50:15.962Z,78.38
2019-02-05T07:51:15.946Z,77.97
2019-02-05T07:52:15.952Z,78.42
2019-02-05T07:53:15.926Z,78.42
2019-02-05T07:54:15.931Z,78.80
2019-02-05T07:55:15.904Z,78.49
2019-02-05T07:56:15.896Z,78.80
2019-02-05T07:57:15.882Z,78.69
2019-02-05T07:58:15.874Z,78.24
2019-02-05T07:59:15.880Z,77.83
2019-02-05T08:00:15.864Z,77.76
2019-02-05T08:01:17.699Z,77.83
2019-02-05T08:02:15.832Z,78.49
2019-02-05T08:03:15.831Z,77.93
2019-02-05T08:04:15.811Z,77.76
2019-02-05T08:05:15.800Z,78.17
2019-02-05T08:06:15.794Z,77.76
2019-02-05T08:07:15.790Z,77.83
2019-02-05T08:08:15.770Z,77.83
2019-02-05T08:09:15.774Z,77.41
2019-02-05T08:10:15.747Z,77.62
2019-02-05T08:11:15.750Z,77.41
2019-02-05T08:12:15.743Z,77.83
2019-02-05T08:13:15.716Z,77.83
2019-02-05T08:14:15.704Z,77.72
2019-02-05T08:15:15.692Z,78.14
2019-02-05T08:16:15.700Z,78.24
2019-02-05T08:17:15.689Z,77.55
2019-02-05T08:18:15.660Z,77.20
2019-02-05T08:19:15.658Z,77.20
2019-02-05T08:20:15.643Z,77.72
2019-02-05T08:21:15.631Z,77.51
2019-02-05T08:22:15.624Z,77.41
2019-02-05T08:23:15.616Z,76.99
2019-02-05T08:24:15.606Z,77.31
2019-02-05T08:25:15.594Z,76.89
2019-02-05T08:26:15.576Z,77.31
2019-02-05T08:27:15.572Z,77.10
2019-02-05T08:28:15.554Z,76.99
2019-02-05T08:29:21.803Z,77.27
2019-02-05T08:30:16.533Z,77.31
2019-02-05T08:31:15.544Z,76.86
2019-02-05T08:32:15.517Z,77.37
2019-02-05T08:33:15.510Z,77.06
2019-02-05T08:34:15.500Z,76.96
2019-02-05T08:35:15.498Z,76.75
2019-02-05T08:36:15.472Z,76.65
2019-02-05T08:37:15.463Z,76.65
2019-02-05T08:38:15.452Z,76.54
2019-02-05T08:39:17.903Z,76.65
2019-02-05T08:40:15.428Z,76.96
2019-02-05T08:41:15.427Z,76.02
2019-02-05T08:42:15.417Z,76.33
2019-02-05T08:43:15.392Z,76.23
2019-02-05T08:44:15.386Z,76.02
2019-02-05T08:45:15.377Z,75.50
2019-02-05T08:46:15.364Z,75.57
2019-02-05T08:47:15.365Z,75.67
2019-02-05T08:48:15.340Z,76.33
2019-02-05T08:49:15.335Z,76.20
2019-02-05T08:50:15.316Z,75.46
2019-02-05T08:51:15.309Z,75.88
2019-02-05T08:52:15.298Z,75.78
2019-02-05T08:53:15.301Z,75.71
2019-02-05T08:54:15.286Z,75.26
2019-02-05T08:55:15.266Z,75.36
2019-02-05T08:56:15.258Z,76.20
2019-02-05T08:57:15.258Z,75.01
2019-02-05T08:58:15.254Z,75.22
2019-02-05T08:59:15.235Z,74.74
2019-02-05T09:00:15.214Z,74.70
2019-02-05T09:01:15.212Z,75.32
2019-02-05T09:02:15.192Z,75.54
2019-02-05T09:03:15.193Z,74.80
2019-02-05T09:04:15.181Z,74.49
2019-02-05T09:05:15.171Z,74.49
2019-02-05T09:06:15.150Z,74.77
2019-02-05T09:07:15.146Z,74.39
2019-02-05T09:08:15.124Z,74.18
2019-02-05T09:09:15.122Z,74.25
2019-02-05T09:10:15.116Z,74.49
2019-02-05T09:11:15.095Z,74.77
2019-02-05T09:12:17.904Z,74.98
2019-02-05T09:13:15.074Z,75.12
2019-02-05T09:14:15.074Z,74.80
2019-02-05T09:15:15.058Z,74.70
2019-02-05T09:16:15.052Z,74.77
2019-02-05T09:17:15.034Z,74.67
2019-02-05T09:18:15.025Z,74.98
2019-02-05T09:19:15.008Z,75.09
2019-02-05T09:20:15.002Z,74.88
2019-02-05T09:21:15.004Z,75.01
2019-02-05T09:22:14.991Z,74.91
2019-02-05T09:23:14.970Z,74.46
2019-02-05T09:24:14.991Z,74.67
2019-02-05T09:25:14.950Z,74.46
2019-02-05T09:26:14.936Z,74.46
2019-02-05T09:27:14.939Z,74.46
2019-02-05T09:28:14.917Z,74.67
2019-02-05T09:29:14.908Z,74.88
2019-02-05T09:30:14.890Z,74.77
2019-02-05T09:31:14.884Z,74.88
2019-02-05T09:32:14.870Z,75.05
2019-02-05T09:33:14.864Z,74.22
2019-02-05T09:34:14.855Z,75.19
2019-02-05T09:35:14.836Z,74.53
2019-02-05T09:36:14.834Z,74.01
2019-02-05T09:37:14.820Z,74.63
2019-02-05T09:38:14.815Z,74.67
2019-02-05T09:39:14.813Z,74.43
2019-02-05T09:40:14.790Z,74.11
2019-02-05T09:41:14.775Z,74.57
2019-02-05T09:42:14.766Z,74.46
2019-02-05T09:43:14.767Z,74.32
2019-02-05T09:44:14.757Z,74.77
2019-02-05T09:45:14.730Z,74.63
2019-02-05T09:46:14.719Z,74.84
2019-02-05T09:47:14.718Z,75.15
2019-02-05T09:48:14.705Z,74.95
2019-02-05T09:49:14.688Z,74.63
2019-02-05T09:50:14.686Z,74.63
2019-02-05T09:51:14.668Z,74.84
2019-02-05T09:52:14.658Z,75.15
2019-02-05T09:53:14.642Z,75.15
2019-02-05T09:54:14.639Z,74.63
2019-02-05T09:55:14.630Z,74.95
2019-02-05T09:56:14.624Z,75.15
2019-02-05T09:57:14.679Z,74.95
2019-02-05T09:58:14.598Z,74.74
2019-02-05T09:59:14.576Z,74.95
2019-02-05T10:00:14.582Z,75.57
2019-02-05T10:01:14.562Z,75.88
2019-02-05T10:02:14.550Z,76.51
2019-02-05T10:03:14.542Z,76.57
2019-02-05T10:04:14.523Z,76.92
2019-02-05T10:05:14.520Z,76.16
2019-02-05T10:06:14.506Z,75.85
2019-02-05T10:07:14.503Z,76.47
2019-02-05T10:08:14.492Z,75.43
2019-02-05T10:09:14.472Z,76.16
2019-02-05T10:10:14.464Z,76.57
2019-02-05T10:11:14.574Z,74.70
2019-02-05T10:12:14.447Z,75.64
2019-02-05T10:13:14.448Z,76.68
2019-02-05T10:14:14.447Z,75.64
2019-02-05T10:15:14.414Z,77.16
2019-02-05T10:16:14.397Z,75.60
2019-02-05T10:17:14.385Z,76.33
2019-02-05T10:18:14.386Z,75.09
2019-02-05T10:19:14.374Z,75.19
2019-02-05T10:20:14.370Z,75.50
2019-02-05T10:21:14.344Z,74.70
2019-02-05T10:22:14.334Z,75.22
2019-02-05T10:23:14.328Z,75.22
2019-02-05T10:24:14.315Z,75.64
2019-02-05T10:25:14.305Z,76.16
2019-02-05T10:26:14.294Z,76.16
2019-02-05T10:27:14.282Z,76.26
2019-02-05T10:28:14.273Z,76.99
2019-02-05T10:29:14.264Z,76.16
2019-02-05T10:30:14.261Z,76.89
2019-02-05T10:31:14.238Z,76.47
2019-02-05T10:32:14.228Z,76.75
2019-02-05T10:33:14.218Z,76.02
2019-02-05T10:34:14.211Z,76.06
2019-02-05T10:35:14.202Z,75.43
2019-02-05T10:36:14.194Z,75.60
2019-02-05T10:37:14.181Z,75.54
2019-02-05T10:38:14.169Z,76.57
2019-02-05T10:39:14.161Z,76.16
2019-02-05T10:40:14.151Z,76.75
2019-02-05T10:41:14.138Z,76.78
2019-02-05T10:42:14.138Z,76.26
2019-02-05T10:43:14.112Z,76.16
2019-02-05T10:44:14.113Z,76.47
2019-02-05T10:45:14.102Z,77.51
2019-02-05T10:46:14.087Z,76.75
2019-02-05T10:47:14.141Z,75.95
2019-02-05T10:48:14.082Z,76.12
2019-02-05T10:49:14.053Z,76.43
2019-02-05T10:50:14.049Z,76.75
2019-02-05T10:51:14.036Z,75.95
2019-02-05T10:52:14.021Z,76.57
2019-02-05T10:53:14.017Z,76.68
2019-02-05T10:54:14.000Z,76.68
2019-02-05T10:55:13.997Z,76.78
2019-02-05T10:56:13.987Z,76.78
2019-02-05T10:57:13.962Z,76.68
2019-02-05T10:58:13.955Z,76.78
2019-02-05T10:59:13.953Z,76.89
2019-02-05T11:00:13.934Z,77.30
2019-02-05T11:01:13.922Z,76.89
2019-02-05T11:02:13.922Z,76.68
2019-02-05T11:03:13.904Z,76.64
2019-02-05T11:04:13.892Z,76.64
2019-02-05T11:05:13.905Z,76.33
2019-02-05T11:06:13.871Z,76.47
2019-02-05T11:07:13.858Z,76.99
2019-02-05T11:08:13.859Z,77.06
2019-02-05T11:09:13.842Z,77.40
2019-02-05T11:10:13.840Z,76.57
2019-02-05T11:11:13.816Z,76.54
2019-02-05T11:12:13.810Z,76.99
2019-02-05T11:13:13.796Z,76.75
2019-02-05T11:14:13.781Z,76.54
2019-02-05T11:15:13.778Z,76.54
2019-02-05T11:16:13.770Z,76.85
2019-02-05T11:17:13.763Z,76.23
2019-02-05T11:18:13.743Z,76.23
2019-02-05T11:19:13.730Z,76.75
2019-02-05T11:20:13.720Z,76.71
2019-02-05T11:21:13.710Z,77.06
2019-02-05T11:22:13.724Z,76.23
2019-02-05T11:23:13.688Z,76.85
2019-02-05T11:24:13.680Z,76.85
2019-02-05T11:25:13.678Z,77.12
2019-02-05T11:26:13.660Z,77.26
2019-02-05T11:27:13.652Z,77.16
2019-02-05T11:28:13.634Z,78.30
2019-02-05T11:29:13.634Z,78.47
2019-02-05T11:30:20.419Z,78.27
2019-02-05T11:31:14.612Z,77.89
2019-02-05T11:32:13.593Z,77.75
2019-02-05T11:33:13.586Z,78.51
2019-02-05T11:34:13.576Z,78.51
2019-02-05T11:35:13.564Z,78.51
2019-02-05T11:36:13.551Z,78.51
2019-02-05T11:37:13.543Z,78.51
2019-02-05T11:38:13.526Z,78.09
2019-02-05T11:39:13.516Z,78.37
2019-02-05T11:40:13.507Z,78.37
2019-02-05T11:41:13.791Z,78.47
2019-02-05T11:42:13.494Z,78.16
2019-02-05T11:43:13.519Z,78.27
2019-02-05T11:44:13.464Z,78.16
2019-02-05T11:45:13.460Z,78.78
2019-02-05T11:46:13.437Z,78.37
2019-02-05T11:47:13.459Z,79.10
2019-02-05T11:48:13.424Z,78.68
2019-02-05T11:49:13.418Z,79.10
2019-02-05T11:50:13.406Z,78.68
2019-02-05T11:51:13.387Z,78.47
2019-02-05T11:52:13.384Z,78.47
2019-02-05T11:53:13.373Z,78.58
2019-02-05T11:54:13.359Z,78.58
2019-02-05T11:55:13.355Z,78.89
2019-02-05T11:56:13.353Z,78.68
2019-02-05T11:57:13.327Z,78.47
2019-02-05T11:58:13.325Z,79.10
2019-02-05T11:59:13.310Z,78.78
2019-02-05T12:00:13.300Z,78.78
2019-02-05T12:01:13.295Z,79.10
2019-02-05T12:02:13.273Z,78.89
2019-02-05T12:03:13.270Z,78.78
2019-02-05T12:04:13.252Z,78.78
2019-02-05T12:05:13.244Z,78.89
2019-02-05T12:06:13.234Z,78.89
2019-02-05T12:07:13.235Z,78.68
2019-02-05T12:08:13.211Z,78.78
2019-02-05T12:09:13.196Z,79.20
2019-02-05T12:10:13.186Z,79.41
2019-02-05T12:11:13.174Z,79.41
2019-02-05T12:12:13.176Z,79.48
2019-02-05T12:13:13.209Z,79.27
2019-02-05T12:14:13.140Z,79.27
2019-02-05T12:15:13.177Z,79.38
2019-02-05T12:16:13.127Z,79.38
2019-02-05T12:17:13.117Z,79.06
2019-02-05T12:18:13.109Z,78.75
2019-02-05T12:19:13.128Z,78.75
2019-02-05T12:20:13.074Z,78.65
2019-02-05T12:21:13.065Z,78.55
2019-02-05T12:22:13.073Z,78.65
2019-02-05T12:23:13.055Z,78.78
2019-02-05T12:24:13.049Z,79.06
2019-02-05T12:25:13.024Z,78.65
2019-02-05T12:26:13.012Z,78.44
2019-02-05T12:27:12.998Z,78.55
2019-02-05T12:28:12.987Z,78.75
2019-02-05T12:29:12.980Z,78.65
2019-02-05T12:30:12.997Z,78.75
2019-02-05T12:31:12.962Z,78.65
2019-02-05T12:32:12.950Z,78.75
2019-02-05T12:33:12.942Z,79.06
2019-02-05T12:34:12.925Z,78.96
2019-02-05T12:35:12.918Z,79.17
2019-02-05T12:36:12.907Z,79.06
2019-02-05T12:37:12.888Z,79.27
2019-02-05T12:38:12.880Z,78.96
2019-02-05T12:39:12.872Z,79.38
2019-02-05T12:40:12.868Z,78.86
2019-02-05T12:41:12.868Z,79.17
2019-02-05T12:42:12.834Z,78.75
2019-02-05T12:43:12.822Z,79.17
2019-02-05T12:44:12.814Z,79.06
2019-02-05T12:45:12.804Z,78.65
2019-02-05T12:46:12.795Z,78.75
2019-02-05T12:47:12.801Z,79.06
2019-02-05T12:48:12.769Z,78.75
2019-02-05T12:49:14.933Z,78.96
2019-02-05T12:50:12.753Z,79.17
2019-02-05T12:51:12.751Z,79.06
2019-02-05T12:52:12.738Z,79.24